Time;durP1;ratioP1;P1;durP2;ratioP2;P2;SDS_P1;SDS_P2;PMS_P1;PMS_P2;Temp;Humidity;BMP_temperature;BMP_pressure;BME280_temperature;BME280_humidity;BME280_pressure;Samples;Min_cycle;Max_cycle;Signal;HPM_P1;HPM_P2
2023/08/24 00:00:42;;;;;;;8.00;6.35;;;16.80;99.90;;;;;;4984842;28;20050;-55
2023/08/24 00:03:08;;;;;;;10.57;7.45;;;16.80;99.90;;;;;;4985175;28;20044;-58
2023/08/24 00:05:38;;;;;;;8.90;6.68;;;16.70;99.90;;;;;;4985261;28;20078;-59
2023/08/24 00:08:08;;;;;;;8.18;6.25;;;16.70;99.90;;;;;;4983620;28;20493;-61
2023/08/24 00:10:35;;;;;;;9.85;6.00;;;16.70;99.90;;;;;;4984708;28;20781;-60
2023/08/24 00:13:00;;;;;;;10.40;7.05;;;16.70;99.90;;;;;;4984542;28;20092;-59
2023/08/24 00:15:26;;;;;;;10.32;6.80;;;16.60;99.90;;;;;;4983309;28;20141;-64
2023/08/24 00:17:52;;;;;;;12.38;6.93;;;16.60;99.90;;;;;;4984632;28;20397;-55
2023/08/24 00:20:17;;;;;;;9.50;6.57;;;16.50;99.90;;;;;;4984999;28;20050;-63
2023/08/24 00:22:43;;;;;;;12.23;6.72;;;16.50;99.90;;;;;;4983669;28;20125;-57
2023/08/24 00:25:09;;;;;;;10.07;6.35;;;16.50;99.90;;;;;;4984977;28;20038;-58
2023/08/24 00:27:35;;;;;;;9.95;5.80;;;16.40;99.90;;;;;;4983003;28;20121;-62
2023/08/24 00:30:06;;;;;;;8.65;5.97;;;16.50;99.90;;;;;;4983934;28;20087;-54
2023/08/24 00:32:36;;;;;;;8.25;5.72;;;16.40;99.90;;;;;;4966525;28;20050;-58
2023/08/24 00:35:04;;;;;;;8.68;5.63;;;16.40;99.90;;;;;;4984113;28;20054;-62
2023/08/24 00:37:30;;;;;;;10.55;5.90;;;16.40;99.90;;;;;;4984518;28;20512;-61
2023/08/24 00:39:55;;;;;;;12.05;6.20;;;16.40;99.90;;;;;;4983626;28;20108;-54
2023/08/24 00:42:22;;;;;;;9.40;6.03;;;16.40;99.90;;;;;;4984611;28;20521;-64
2023/08/24 00:44:48;;;;;;;7.45;5.65;;;16.30;99.90;;;;;;4984116;28;20121;-64
2023/08/24 00:47:15;;;;;;;8.82;5.95;;;16.30;99.90;;;;;;4983249;28;20129;-58
2023/08/24 00:49:41;;;;;;;9.25;5.80;;;16.30;99.90;;;;;;4984810;28;20096;-53
2023/08/24 00:52:07;;;;;;;7.68;5.07;;;16.30;99.90;;;;;;4982976;28;20410;-55
2023/08/24 00:54:34;;;;;;;10.07;5.30;;;16.30;99.90;;;;;;4984009;28;20069;-64
2023/08/24 00:57:00;;;;;;;7.85;5.32;;;16.30;99.90;;;;;;4994959;28;20045;-60
2023/08/24 00:59:26;;;;;;;7.10;5.18;;;16.20;99.90;;;;;;4984592;28;20478;-54
2023/08/24 01:01:52;;;;;;;7.40;5.38;;;16.30;99.90;;;;;;4984591;28;20133;-63
2023/08/24 01:04:18;;;;;;;9.80;5.22;;;16.20;99.90;;;;;;4983832;28;20046;-53
2023/08/24 01:06:43;;;;;;;10.25;5.30;;;16.20;99.90;;;;;;5072768;22;20460;-60
2023/08/24 01:09:09;;;;;;;8.25;4.85;;;16.20;99.90;;;;;;5016413;28;20064;-66
2023/08/24 01:11:45;;;;;;;8.55;4.97;;;16.20;99.90;;;;;;5005444;28;20050;-57
2023/08/24 01:14:52;;;;;;;8.07;4.63;;;16.30;99.90;;;;;;5023807;28;20094;-61
2023/08/24 01:17:23;;;;;;;7.80;4.43;;;16.40;99.90;;;;;;5007039;28;20077;-66
2023/08/24 01:19:50;;;;;;;8.23;4.40;;;16.40;99.90;;;;;;5004272;28;20042;-57
2023/08/24 01:22:27;;;;;;;10.10;4.80;;;16.50;99.90;;;;;;5003534;28;20038;-59
2023/08/24 01:25:11;;;;;;;9.68;5.50;;;16.50;99.90;;;;;;5004308;28;20038;-66
2023/08/24 01:27:37;;;;;;;9.57;6.00;;;16.50;99.90;;;;;;5019965;28;20148;-64
2023/08/24 01:30:05;;;;;;;9.43;5.25;;;16.60;99.90;;;;;;5018926;28;20054;-65
2023/08/24 01:32:32;;;;;;;9.77;5.38;;;16.40;99.90;;;;;;5019554;28;20053;-67
2023/08/24 01:35:02;;;;;;;8.13;5.55;;;16.40;99.90;;;;;;5007297;28;20733;-66
2023/08/24 01:37:28;;;;;;;11.20;5.53;;;16.40;99.90;;;;;;5006306;28;20497;-57
2023/08/24 01:40:09;;;;;;;7.68;5.13;;;16.40;99.90;;;;;;5006816;28;20081;-57
2023/08/24 01:42:39;;;;;;;9.45;5.07;;;16.40;99.90;;;;;;5006171;28;20046;-64
2023/08/24 01:45:08;;;;;;;9.25;4.90;;;16.40;99.90;;;;;;5006342;28;20130;-59
2023/08/24 01:47:35;;;;;;;6.75;5.15;;;16.40;99.90;;;;;;5007312;28;20050;-55
2023/08/24 01:50:01;;;;;;;5.53;4.07;;;16.40;99.90;;;;;;5021758;28;20049;-66
2023/08/24 01:52:27;;;;;;;9.80;5.07;;;16.50;99.90;;;;;;5025937;28;20099;-66
2023/08/24 01:54:53;;;;;;;6.82;4.82;;;16.50;99.90;;;;;;5026402;28;20049;-64
2023/08/24 01:57:19;;;;;;;8.15;5.13;;;16.50;99.90;;;;;;5018356;28;20038;-62
2023/08/24 01:59:44;;;;;;;6.05;4.43;;;16.60;99.90;;;;;;5007301;28;20088;-53
2023/08/24 02:02:10;;;;;;;10.00;5.10;;;16.50;99.90;;;;;;5007913;28;20046;-65
2023/08/24 02:04:35;;;;;;;9.43;5.38;;;16.50;99.90;;;;;;5007673;28;20034;-59
2023/08/24 02:07:01;;;;;;;10.30;5.38;;;16.60;99.90;;;;;;5006554;28;20049;-56
2023/08/24 02:09:27;;;;;;;10.18;4.68;;;16.60;99.90;;;;;;5008017;28;20512;-66
2023/08/24 02:11:52;;;;;;;9.65;5.80;;;16.70;99.90;;;;;;5007790;28;20045;-55
2023/08/24 02:14:18;;;;;;;9.18;5.72;;;16.70;99.90;;;;;;5007515;28;20038;-49
2023/08/24 02:16:44;;;;;;;9.48;5.88;;;16.70;99.90;;;;;;5007488;28;20053;-58
2023/08/24 02:19:10;;;;;;;9.50;7.10;;;16.70;99.90;;;;;;5008241;28;20045;-65
2023/08/24 02:21:36;;;;;;;9.25;6.05;;;16.70;99.90;;;;;;5006947;28;20050;-59
2023/08/24 02:24:03;;;;;;;9.25;6.18;;;16.80;99.90;;;;;;5005821;28;20054;-62
2023/08/24 02:26:28;;;;;;;10.73;6.95;;;16.80;99.90;;;;;;5007585;28;20095;-63
2023/08/24 02:28:54;;;;;;;10.73;6.18;;;16.90;99.90;;;;;;5006964;28;20045;-57
2023/08/24 02:31:20;;;;;;;7.45;5.70;;;17.00;99.90;;;;;;5006528;28;20049;-65
2023/08/24 02:33:46;;;;;;;9.00;5.80;;;17.00;99.90;;;;;;5006422;28;20042;-60
2023/08/24 02:36:11;;;;;;;9.63;5.80;;;16.80;99.90;;;;;;5006045;28;20833;-59
2023/08/24 02:38:37;;;;;;;8.40;5.50;;;16.80;99.90;;;;;;5006717;28;20054;-65
2023/08/24 02:41:04;;;;;;;7.55;5.47;;;16.80;99.90;;;;;;5006477;28;20396;-54
2023/08/24 02:43:29;;;;;;;9.18;5.07;;;16.80;99.90;;;;;;5006641;28;20053;-67
2023/08/24 02:46:06;;;;;;;7.40;5.50;;;16.80;99.90;;;;;;5005892;28;20038;-62
2023/08/24 02:48:32;;;;;;;7.05;5.28;;;16.90;99.90;;;;;;5006090;28;20096;-65
2023/08/24 02:50:59;;;;;;;11.52;6.07;;;16.90;99.90;;;;;;5005793;28;20451;-52
2023/08/24 02:53:25;;;;;;;8.35;5.95;;;16.90;99.90;;;;;;5006478;28;20116;-60
2023/08/24 02:55:51;;;;;;;10.15;6.40;;;16.90;99.90;;;;;;5008971;28;20053;-64
2023/08/24 02:58:16;;;;;;;9.05;6.63;;;16.90;99.90;;;;;;5014284;28;20053;-56
2023/08/24 03:00:42;;;;;;;10.18;7.25;;;16.90;99.90;;;;;;5006334;28;20416;-65
2023/08/24 03:03:07;;;;;;;9.25;7.13;;;16.90;99.90;;;;;;5006415;28;20225;-56
2023/08/24 03:05:33;;;;;;;10.75;7.43;;;17.10;99.90;;;;;;5005848;28;20049;-67
2023/08/24 03:07:59;;;;;;;9.32;7.82;;;16.90;99.90;;;;;;5004931;28;20050;-66
2023/08/24 03:10:25;;;;;;;11.63;8.18;;;17.00;99.90;;;;;;5006054;28;20064;-55
2023/08/24 03:12:50;;;;;;;11.13;7.60;;;17.00;99.90;;;;;;5006593;28;20116;-63
2023/08/24 03:15:16;;;;;;;10.43;8.00;;;16.90;99.90;;;;;;5006445;28;20395;-51
2023/08/24 03:17:42;;;;;;;10.95;8.10;;;17.10;99.90;;;;;;5005873;28;20053;-64
2023/08/24 03:20:08;;;;;;;13.15;7.65;;;17.00;99.90;;;;;;5004352;28;20045;-62
2023/08/24 03:22:34;;;;;;;11.93;7.40;;;16.90;99.90;;;;;;5004574;28;20133;-59
2023/08/24 03:25:00;;;;;;;11.65;7.22;;;16.90;99.90;;;;;;5006046;28;20493;-67
2023/08/24 03:27:25;;;;;;;11.70;7.63;;;16.90;99.90;;;;;;5004830;28;20042;-54
2023/08/24 03:29:54;;;;;;;11.35;7.38;;;16.90;99.90;;;;;;5005623;28;20061;-65
2023/08/24 03:32:20;;;;;;;12.10;7.82;;;16.80;99.90;;;;;;4987405;28;20041;-58
2023/08/24 03:34:45;;;;;;;11.15;7.47;;;16.80;99.90;;;;;;5005588;28;20046;-58
2023/08/24 03:37:11;;;;;;;11.23;7.45;;;16.80;99.90;;;;;;5004807;28;20045;-62
2023/08/24 03:39:38;;;;;;;11.55;7.35;;;16.80;99.90;;;;;;5005164;28;20037;-57
2023/08/24 03:42:04;;;;;;;10.45;7.20;;;16.80;99.90;;;;;;5005434;28;20050;-64
2023/08/24 03:44:29;;;;;;;10.50;6.72;;;16.80;99.90;;;;;;5004723;28;20145;-63
2023/08/24 03:46:55;;;;;;;11.02;6.97;;;16.80;99.90;;;;;;5005331;28;20042;-54
2023/08/24 03:49:21;;;;;;;12.82;7.47;;;16.80;99.90;;;;;;5003970;28;20046;-49
2023/08/24 03:51:46;;;;;;;10.95;7.25;;;16.80;99.90;;;;;;5004268;28;20124;-59
2023/08/24 03:54:12;;;;;;;10.98;6.80;;;16.90;99.90;;;;;;5005204;28;20532;-49
2023/08/24 03:56:37;;;;;;;12.27;7.03;;;16.80;99.90;;;;;;5011917;28;20178;-65
2023/08/24 03:59:03;;;;;;;9.52;7.25;;;16.70;99.90;;;;;;5007689;28;20037;-62
2023/08/24 04:01:29;;;;;;;11.07;7.43;;;16.80;99.90;;;;;;5005402;28;20045;-66
2023/08/24 04:03:54;;;;;;;15.60;7.93;;;16.80;99.90;;;;;;5003997;28;20045;-59
2023/08/24 04:06:20;;;;;;;10.23;7.30;;;16.80;99.90;;;;;;5004350;28;20056;-67
2023/08/24 04:08:46;;;;;;;12.07;7.57;;;16.80;99.90;;;;;;5005349;28;20069;-60
2023/08/24 04:11:12;;;;;;;10.73;8.13;;;16.80;99.90;;;;;;5005223;28;20045;-63
2023/08/24 04:13:37;;;;;;;15.20;8.95;;;16.70;99.90;;;;;;4986586;28;20152;-68
2023/08/24 04:16:03;;;;;;;10.95;8.50;;;16.70;99.90;;;;;;5004855;28;20133;-57
2023/08/24 04:18:29;;;;;;;11.98;8.65;;;16.70;99.90;;;;;;5003459;28;20125;-64
2023/08/24 04:20:55;;;;;;;13.32;8.55;;;16.60;99.90;;;;;;5003857;28;20560;-55
2023/08/24 04:23:28;;;;;;;15.10;8.65;;;16.60;99.90;;;;;;5005253;28;20374;-49
2023/08/24 04:25:54;;;;;;;14.25;8.30;;;16.60;99.90;;;;;;5005371;28;20053;-59
2023/08/24 04:28:20;;;;;;;10.13;7.88;;;16.60;99.90;;;;;;5003682;28;20038;-64
2023/08/24 04:30:53;;;;;;;11.15;8.05;;;16.60;99.90;;;;;;5004131;28;20046;-62
2023/08/24 04:33:19;;;;;;;11.25;7.60;;;16.60;99.90;;;;;;5004655;28;20042;-54
2023/08/24 04:35:49;;;;;;;12.75;8.07;;;16.60;99.90;;;;;;5003383;28;20158;-65
2023/08/24 04:38:15;;;;;;;11.98;7.90;;;16.70;99.90;;;;;;5004167;28;20050;-65
2023/08/24 04:40:55;;;;;;;16.02;8.32;;;16.70;99.90;;;;;;5004197;28;20056;-63
2023/08/24 04:43:23;;;;;;;12.68;8.63;;;16.80;99.90;;;;;;5004535;28;20090;-67
2023/08/24 04:45:52;;;;;;;12.60;8.30;;;16.70;99.90;;;;;;5005040;28;20382;-66
2023/08/24 04:48:18;;;;;;;12.40;8.98;;;16.80;99.90;;;;;;5023254;28;20219;-61
2023/08/24 04:50:45;;;;;;;11.38;9.10;;;16.70;99.90;;;;;;5023570;28;20080;-61
2023/08/24 04:53:12;;;;;;;11.48;9.10;;;16.70;99.90;;;;;;5023923;28;20037;-64
2023/08/24 04:55:38;;;;;;;12.38;8.88;;;16.70;99.90;;;;;;5017101;28;20049;-62
2023/08/24 04:58:04;;;;;;;14.05;9.18;;;16.70;99.90;;;;;;5013146;28;20092;-63
2023/08/24 05:00:32;;;;;;;15.77;8.30;;;16.70;99.90;;;;;;5003439;28;20086;-66
2023/08/24 05:02:58;;;;;;;14.18;8.70;;;16.70;99.90;;;;;;5004826;28;20103;-63
2023/08/24 05:05:24;;;;;;;14.38;8.52;;;16.70;99.90;;;;;;5004244;28;20046;-58
2023/08/24 05:07:49;;;;;;;15.07;8.70;;;16.70;99.90;;;;;;5005147;28;20065;-64
2023/08/24 05:10:15;;;;;;;14.00;9.00;;;16.70;99.90;;;;;;5008365;28;20061;-61
2023/08/24 05:12:41;;;;;;;15.48;9.27;;;16.70;99.90;;;;;;5008049;28;20038;-66
2023/08/24 05:15:07;;;;;;;12.93;8.73;;;16.70;99.90;;;;;;5007835;28;20096;-60
2023/08/24 05:17:33;;;;;;;15.23;9.00;;;16.70;99.90;;;;;;5005742;28;20038;-62
2023/08/24 05:19:59;;;;;;;13.98;9.07;;;16.70;99.90;;;;;;5021795;28;20845;-63
2023/08/24 05:22:24;;;;;;;12.73;9.15;;;16.70;99.90;;;;;;5027913;28;20042;-67
2023/08/24 05:24:51;;;;;;;14.70;9.05;;;16.80;99.90;;;;;;5027599;28;20431;-63
2023/08/24 05:27:16;;;;;;;15.40;9.18;;;16.80;99.90;;;;;;5027929;28;20139;-54
2023/08/24 05:29:43;;;;;;;13.13;9.23;;;16.90;99.90;;;;;;5027398;28;20120;-62
2023/08/24 05:32:08;;;;;;;13.50;8.90;;;16.90;99.90;;;;;;5027684;28;20042;-59
2023/08/24 05:34:34;;;;;;;13.57;8.48;;;17.00;99.90;;;;;;5020002;28;20042;-61
2023/08/24 05:36:59;;;;;;;12.60;8.52;;;17.00;99.90;;;;;;5005463;28;20049;-62
2023/08/24 05:39:25;;;;;;;12.63;8.52;;;17.10;99.90;;;;;;5008067;28;20038;-62
2023/08/24 05:41:52;;;;;;;10.90;7.93;;;17.10;99.90;;;;;;5007386;28;20212;-60
2023/08/24 05:44:21;;;;;;;10.50;7.30;;;17.30;99.90;;;;;;5007989;28;20095;-57
2023/08/24 05:46:47;;;;;;;14.80;7.45;;;17.50;99.90;;;;;;5008022;28;20489;-56
2023/08/24 05:49:13;;;;;;;10.05;6.47;;;17.90;99.90;;;;;;5007261;28;20049;-65
2023/08/24 05:51:39;;;;;;;9.65;6.88;;;18.10;99.90;;;;;;5005281;28;20033;-53
2023/08/24 05:54:05;;;;;;;10.82;6.68;;;18.00;99.90;;;;;;5007209;28;20180;-63
2023/08/24 05:56:30;;;;;;;11.52;6.97;;;17.90;99.90;;;;;;5014931;28;20492;-64
2023/08/24 05:58:58;;;;;;;9.52;6.22;;;17.80;99.90;;;;;;5010040;28;20046;-54
2023/08/24 06:01:24;;;;;;;10.35;7.20;;;17.60;99.90;;;;;;5007100;28;20130;-65
2023/08/24 06:03:50;;;;;;;11.77;6.60;;;17.60;99.90;;;;;;5006926;28;20090;-59
2023/08/24 06:06:16;;;;;;;12.63;7.32;;;17.50;99.90;;;;;;5006106;28;20140;-52
2023/08/24 06:08:42;;;;;;;9.52;7.00;;;17.60;99.90;;;;;;5007307;28;20436;-63
2023/08/24 06:11:08;;;;;;;11.88;7.05;;;17.50;99.90;;;;;;5007971;28;20048;-53
2023/08/24 06:13:34;;;;;;;11.90;6.88;;;17.50;99.90;;;;;;5006571;28;20037;-52
2023/08/24 06:15:59;;;;;;;9.63;6.80;;;17.60;99.90;;;;;;5006335;28;20602;-61
2023/08/24 06:18:25;;;;;;;10.80;6.80;;;17.60;99.90;;;;;;5007345;28;20046;-63
2023/08/24 06:20:50;;;;;;;10.43;6.85;;;17.60;99.90;;;;;;5005742;28;20476;-59
2023/08/24 06:23:17;;;;;;;15.27;6.60;;;17.90;99.90;;;;;;5006723;28;20107;-56
2023/08/24 06:25:43;;;;;;;8.57;6.60;;;18.70;99.90;;;;;;5021534;28;20388;-56
2023/08/24 06:28:09;;;;;;;10.55;6.40;;;19.50;99.90;;;;;;5006462;28;20042;-64
2023/08/24 06:30:39;;;;;;;13.10;5.85;;;20.20;99.90;;;;;;5006657;28;20054;-53
2023/08/24 06:33:05;;;;;;;7.55;5.63;;;20.90;99.90;;;;;;5005962;28;20085;-67
2023/08/24 06:35:31;;;;;;;7.13;5.30;;;21.30;99.90;;;;;;5005591;28;20055;-64
2023/08/24 06:37:57;;;;;;;7.18;4.65;;;21.50;99.90;;;;;;5007087;28;20041;-58
2023/08/24 06:40:22;;;;;;;9.35;5.22;;;21.80;99.90;;;;;;5006228;28;20111;-54
2023/08/24 06:42:48;;;;;;;10.13;5.28;;;22.20;99.90;;;;;;5006684;28;20053;-56
2023/08/24 06:45:14;;;;;;;9.23;5.55;;;22.30;99.90;;;;;;5006270;28;20478;-66
2023/08/24 06:47:39;;;;;;;8.02;4.80;;;22.50;99.90;;;;;;5004755;28;20045;-59
2023/08/24 06:50:06;;;;;;;7.20;4.72;;;22.60;99.90;;;;;;5005368;28;20042;-59
2023/08/24 06:52:32;;;;;;;9.63;4.97;;;22.80;99.90;;;;;;5005971;28;20072;-66
2023/08/24 06:54:59;;;;;;;7.35;4.82;;;23.00;99.90;;;;;;5006592;28;20042;-59
2023/08/24 06:57:24;;;;;;;5.75;4.55;;;23.20;99.90;;;;;;5010440;28;20029;-59
2023/08/24 06:59:50;;;;;;;8.07;4.97;;;23.50;99.90;;;;;;5006738;28;20042;-63
2023/08/24 07:02:17;;;;;;;7.90;5.10;;;23.60;99.90;;;;;;5006186;28;20164;-65
2023/08/24 07:04:43;;;;;;;8.40;5.47;;;23.60;99.90;;;;;;5004887;28;20110;-61
2023/08/24 07:07:10;;;;;;;8.85;5.30;;;23.60;99.90;;;;;;5004399;28;20479;-62
2023/08/24 07:09:35;;;;;;;7.32;5.20;;;23.60;99.90;;;;;;5005735;28;20470;-63
2023/08/24 07:12:07;;;;;;;8.75;5.05;;;23.50;99.90;;;;;;5006434;28;20069;-61
2023/08/24 07:14:33;;;;;;;10.23;5.35;;;23.60;99.90;;;;;;5005313;28;20093;-66
2023/08/24 07:16:59;;;;;;;8.98;5.10;;;23.80;99.90;;;;;;5005848;28;20053;-63
2023/08/24 07:19:24;;;;;;;8.70;5.40;;;23.90;99.90;;;;;;5004871;28;20037;-67
2023/08/24 07:21:50;;;;;;;9.82;5.53;;;23.90;99.90;;;;;;5004796;28;20042;-49
2023/08/24 07:24:18;;;;;;;9.82;5.63;;;23.80;99.90;;;;;;5007320;28;20052;-66
2023/08/24 07:26:45;;;;;;;9.93;5.40;;;23.50;99.90;;;;;;5017269;28;20454;-67
2023/08/24 07:29:11;;;;;;;6.30;5.25;;;23.40;99.90;;;;;;5024981;28;20536;-54
2023/08/24 07:31:37;;;;;;;11.50;5.82;;;23.10;99.90;;;;;;5023490;28;20124;-66
2023/08/24 07:34:03;;;;;;;9.55;5.30;;;22.90;99.90;;;;;;5006241;28;20046;-56
2023/08/24 07:36:30;;;;;;;7.55;5.43;;;22.90;99.90;;;;;;5004844;28;20722;-61
2023/08/24 07:38:55;;;;;;;8.48;5.80;;;23.10;99.90;;;;;;5004735;28;20030;-63
2023/08/24 07:41:21;;;;;;;8.57;6.00;;;23.30;99.90;;;;;;5005390;28;20156;-56
2023/08/24 07:43:47;;;;;;;8.18;6.35;;;23.50;99.90;;;;;;5019178;28;20046;-66
2023/08/24 07:46:12;;;;;;;9.27;5.88;;;23.50;99.90;;;;;;5023524;28;20536;-66
2023/08/24 07:48:38;;;;;;;8.45;5.93;;;23.60;99.90;;;;;;5024612;28;20029;-60
2023/08/24 07:51:04;;;;;;;7.50;6.20;;;23.60;99.90;;;;;;5023944;28;20046;-50
2023/08/24 07:53:30;;;;;;;8.95;6.10;;;23.70;99.90;;;;;;5022977;28;20411;-53
2023/08/24 07:55:57;;;;;;;7.97;6.03;;;23.70;99.90;;;;;;5019368;28;20037;-63
2023/08/24 07:58:23;;;;;;;10.55;6.80;;;23.80;99.90;;;;;;5011579;28;20064;-63
2023/08/24 08:00:52;;;;;;;10.07;6.22;;;24.10;99.90;;;;;;5002953;28;20054;-57
2023/08/24 08:03:19;;;;;;;9.23;6.85;;;24.40;99.90;;;;;;5005904;28;20057;-62
2023/08/24 08:05:46;;;;;;;9.35;6.32;;;24.50;99.90;;;;;;5004559;28;20038;-60
2023/08/24 08:08:14;;;;;;;10.23;5.93;;;24.60;99.90;;;;;;5004439;28;20107;-55
2023/08/24 08:10:41;;;;;;;15.30;6.30;;;24.80;99.90;;;;;;5005381;28;20038;-58
2023/08/24 08:13:07;;;;;;;8.98;6.15;;;24.80;99.50;;;;;;5004642;28;20162;-60
2023/08/24 08:15:33;;;;;;;10.40;5.90;;;24.60;98.90;;;;;;5003862;28;20060;-53
2023/08/24 08:17:58;;;;;;;7.65;5.32;;;24.50;99.30;;;;;;5005577;28;20042;-57
2023/08/24 08:20:24;;;;;;;7.40;5.55;;;24.40;99.00;;;;;;5003696;28;20404;-59
2023/08/24 08:22:50;;;;;;;9.50;5.30;;;24.30;99.30;;;;;;5003881;28;20362;-60
2023/08/24 08:25:19;;;;;;;9.65;4.95;;;24.30;99.40;;;;;;5004423;28;20469;-60
2023/08/24 08:27:44;;;;;;;9.18;5.00;;;24.10;99.50;;;;;;5004680;28;20211;-59
2023/08/24 08:30:11;;;;;;;11.18;5.43;;;24.00;99.70;;;;;;5004682;28;20485;-58
2023/08/24 08:32:36;;;;;;;7.18;4.00;;;24.20;99.70;;;;;;5004947;28;20239;-59
2023/08/24 08:35:04;;;;;;;12.02;5.07;;;24.40;99.50;;;;;;5003602;28;20068;-58
2023/08/24 08:37:32;;;;;;;7.82;4.53;;;24.40;99.10;;;;;;5004577;28;20053;-59
2023/08/24 08:39:57;;;;;;;9.80;5.40;;;24.60;99.10;;;;;;5004761;28;20042;-59
2023/08/24 08:42:23;;;;;;;9.82;5.63;;;24.80;99.20;;;;;;5004524;28;20046;-55
2023/08/24 08:44:49;;;;;;;8.65;5.85;;;24.80;98.90;;;;;;5004136;28;20141;-58
2023/08/24 08:47:17;;;;;;;8.13;6.20;;;24.60;99.00;;;;;;5004727;28;20924;-57
2023/08/24 08:49:45;;;;;;;12.80;6.28;;;24.70;99.30;;;;;;5005362;28;20049;-58
2023/08/24 08:52:11;;;;;;;12.02;7.28;;;24.80;98.90;;;;;;5005179;28;20081;-57
2023/08/24 08:54:37;;;;;;;11.80;6.18;;;24.60;99.00;;;;;;5003899;28;20115;-60
2023/08/24 08:57:03;;;;;;;7.13;5.22;;;24.40;99.20;;;;;;5015696;28;20053;-58
2023/08/24 08:59:30;;;;;;;11.15;5.95;;;24.30;99.60;;;;;;5007729;28;20049;-60
2023/08/24 09:01:58;;;;;;;10.38;6.28;;;24.00;99.90;;;;;;5023267;28;20095;-59
2023/08/24 09:04:33;;;;;;;12.05;6.00;;;23.80;99.90;;;;;;5023888;28;20050;-60
2023/08/24 09:07:07;;;;;;;8.60;5.93;;;23.70;99.90;;;;;;5011490;28;20054;-59
2023/08/24 09:09:33;;;;;;;7.63;5.45;;;23.90;99.90;;;;;;5003649;28;20053;-60
2023/08/24 09:11:59;;;;;;;9.57;5.60;;;24.30;99.90;;;;;;5004946;28;20447;-59
2023/08/24 09:14:25;;;;;;;12.57;5.97;;;24.60;99.90;;;;;;5015443;28;20384;-59
2023/08/24 09:16:51;;;;;;;10.48;6.00;;;24.70;99.90;;;;;;5023486;28;20063;-60
2023/08/24 09:19:16;;;;;;;9.25;6.35;;;24.80;99.90;;;;;;5020028;28;20080;-61
2023/08/24 09:21:42;;;;;;;10.27;6.15;;;24.80;99.70;;;;;;5022842;28;20041;-61
2023/08/24 09:24:08;;;;;;;10.77;6.10;;;24.90;99.90;;;;;;5023987;28;20041;-62
2023/08/24 09:26:36;;;;;;;10.60;6.70;;;24.90;99.90;;;;;;5022502;28;20183;-59
2023/08/24 09:29:15;;;;;;;11.05;7.05;;;25.00;99.90;;;;;;5023916;28;20100;-61
2023/08/24 09:31:45;;;;;;;11.30;7.40;;;24.90;99.90;;;;;;5023275;28;20050;-61
2023/08/24 09:34:11;;;;;;;11.55;7.50;;;24.90;99.50;;;;;;5023941;28;20033;-61
2023/08/24 09:36:39;;;;;;;13.85;7.47;;;24.60;99.90;;;;;;5022583;28;20056;-62
2023/08/24 09:39:05;;;;;;;11.80;7.63;;;24.40;99.90;;;;;;5022324;28;20129;-61
2023/08/24 09:41:41;;;;;;;13.05;8.23;;;24.40;99.90;;;;;;5023914;28;20092;-66
2023/08/24 09:44:08;;;;;;;15.25;8.25;;;24.30;99.90;;;;;;5024275;28;20056;-58
2023/08/24 09:46:37;;;;;;;15.02;8.07;;;24.30;99.90;;;;;;5023439;28;20248;-65
2023/08/24 09:49:05;;;;;;;12.95;7.95;;;24.20;99.90;;;;;;5023826;28;20049;-60
2023/08/24 09:51:33;;;;;;;12.77;8.27;;;24.30;99.90;;;;;;5023102;28;20501;-61
2023/08/24 09:54:01;;;;;;;10.98;8.50;;;24.20;99.90;;;;;;5023335;28;20053;-61
2023/08/24 09:56:28;;;;;;;11.43;8.45;;;24.10;99.90;;;;;;5020210;28;20053;-60
2023/08/24 09:58:58;;;;;;;9.95;7.85;;;24.10;99.90;;;;;;5013207;28;20048;-68
2023/08/24 10:01:25;;;;;;;11.95;7.95;;;24.10;99.90;;;;;;5021750;28;20128;-65
2023/08/24 10:03:56;;;;;;;15.57;7.55;;;24.20;99.90;;;;;;5008256;28;20107;-64
2023/08/24 10:06:24;;;;;;;10.77;7.03;;;24.20;99.90;;;;;;5013863;28;20046;-64
2023/08/24 10:08:58;;;;;;;14.00;6.90;;;24.20;99.90;;;;;;5009253;28;20108;-64
2023/08/24 10:11:28;;;;;;;13.70;7.38;;;24.30;99.90;;;;;;5005421;28;20425;-64
2023/08/24 10:14:13;;;;;;;10.30;7.22;;;24.40;99.90;;;;;;5023455;28;20046;-64
2023/08/24 10:16:40;;;;;;;11.77;6.90;;;24.20;99.90;;;;;;5016765;28;20345;-65
2023/08/24 10:19:07;;;;;;;10.80;6.70;;;24.10;99.90;;;;;;5013413;28;20042;-65
2023/08/24 10:21:33;;;;;;;12.35;6.88;;;24.20;99.90;;;;;;5006060;28;20049;-63
2023/08/24 10:24:02;;;;;;;9.73;7.20;;;24.30;99.90;;;;;;5006573;28;20097;-58
2023/08/24 10:26:27;;;;;;;15.65;7.15;;;24.20;99.90;;;;;;5014279;28;20049;-65
2023/08/24 10:28:53;;;;;;;11.30;6.22;;;24.10;99.90;;;;;;5025131;28;20365;-62
2023/08/24 10:31:20;;;;;;;11.07;7.13;;;24.10;99.90;;;;;;5024576;28;20049;-66
2023/08/24 10:33:46;;;;;;;10.48;7.13;;;24.10;99.90;;;;;;5012973;28;20412;-66
2023/08/24 10:36:17;;;;;;;13.18;7.65;;;24.20;99.90;;;;;;5003807;28;20056;-65
2023/08/24 10:38:43;;;;;;;12.38;7.90;;;24.20;99.90;;;;;;5006194;28;20045;-61
2023/08/24 10:41:13;;;;;;;13.38;7.28;;;24.10;99.90;;;;;;5006310;28;20087;-66
2023/08/24 10:43:40;;;;;;;10.45;7.68;;;24.10;99.90;;;;;;5006212;28;20046;-66
2023/08/24 10:46:15;;;;;;;11.10;6.90;;;24.10;99.90;;;;;;5006087;28;20050;-64
2023/08/24 10:48:41;;;;;;;11.52;7.15;;;24.10;99.90;;;;;;5007332;28;20096;-71
2023/08/24 10:51:48;;;;;;;14.30;8.02;;;24.10;99.90;;;;;;5005976;28;20389;-64
2023/08/24 10:54:07;;;;;;;11.40;7.40;;;24.10;99.90;;;;;;5004396;28;20389;-65
2023/08/24 10:56:39;;;;;;;13.55;7.03;;;24.00;99.90;;;;;;5012932;28;20046;-64
2023/08/24 10:59:17;;;;;;;12.05;7.03;;;24.00;99.90;;;;;;5009332;28;20050;-58
2023/08/24 11:01:58;;;;;;;11.52;6.68;;;24.10;99.90;;;;;;5012259;28;20068;-62
2023/08/24 11:04:25;;;;;;;10.63;6.65;;;24.10;99.90;;;;;;5023960;28;20587;-64
2023/08/24 11:06:59;;;;;;;10.00;6.82;;;24.10;99.90;;;;;;5016239;28;20069;-67
2023/08/24 11:09:25;;;;;;;9.85;7.30;;;24.20;99.90;;;;;;5025998;28;20068;-67
2023/08/24 11:12:03;;;;;;;13.85;6.63;;;24.20;99.90;;;;;;5019874;28;20114;-59
2023/08/24 11:14:30;;;;;;;11.95;7.35;;;24.20;99.90;;;;;;5012323;28;20772;-65
2023/08/24 11:17:00;;;;;;;11.70;7.07;;;24.20;99.90;;;;;;5015505;28;20061;-65
2023/08/24 11:19:26;;;;;;;10.45;6.60;;;24.30;99.90;;;;;;5011800;28;20049;-66
2023/08/24 11:21:51;;;;;;;13.88;7.47;;;24.40;99.90;;;;;;5005384;28;20057;-67
2023/08/24 11:24:17;;;;;;;10.30;6.63;;;24.40;99.90;;;;;;5005961;28;20523;-62
2023/08/24 11:26:45;;;;;;;11.98;6.38;;;24.50;99.90;;;;;;5005829;28;20046;-67
2023/08/24 11:29:11;;;;;;;9.77;6.13;;;24.60;99.90;;;;;;5012165;28;20146;-61
2023/08/24 11:31:38;;;;;;;11.48;7.28;;;24.70;99.90;;;;;;5025701;28;20133;-57
2023/08/24 11:34:04;;;;;;;12.80;8.23;;;24.80;99.90;;;;;;5015359;28;20049;-61
2023/08/24 11:36:31;;;;;;;14.25;7.85;;;24.80;99.90;;;;;;5024353;28;20049;-66
2023/08/24 11:38:58;;;;;;;16.55;10.05;;;24.80;99.90;;;;;;5025575;28;20056;-65
2023/08/24 11:41:25;;;;;;;11.75;7.97;;;24.90;99.90;;;;;;5025271;28;20392;-61
2023/08/24 11:44:00;;;;;;;10.23;7.20;;;25.00;99.90;;;;;;5016001;28;20056;-65
2023/08/24 11:46:29;;;;;;;11.18;7.78;;;25.10;99.90;;;;;;5023953;28;20138;-67
2023/08/24 11:48:54;;;;;;;11.25;6.88;;;25.20;99.90;;;;;;5016138;28;20092;-67
2023/08/24 11:51:20;;;;;;;16.17;7.82;;;25.30;99.90;;;;;;5017351;28;20123;-62
2023/08/24 11:53:46;;;;;;;13.07;8.10;;;25.30;99.90;;;;;;5025076;28;20090;-63
2023/08/24 11:56:13;;;;;;;9.82;7.20;;;25.40;99.90;;;;;;5018833;28;20050;-67
2023/08/24 11:58:42;;;;;;;14.13;7.50;;;25.40;99.80;;;;;;5010363;28;20125;-61
2023/08/24 12:01:09;;;;;;;12.85;7.22;;;25.40;99.70;;;;;;5005803;28;20413;-67
2023/08/24 12:03:36;;;;;;;9.48;7.45;;;25.40;98.80;;;;;;5005444;28;20210;-59
2023/08/24 12:06:09;;;;;;;11.93;7.78;;;25.30;99.00;;;;;;5008835;28;20099;-66
2023/08/24 12:08:41;;;;;;;12.10;7.50;;;25.40;99.00;;;;;;5023982;28;20100;-59
2023/08/24 12:11:12;;;;;;;10.27;6.82;;;25.40;99.00;;;;;;5022371;28;20171;-64
2023/08/24 12:13:42;;;;;;;10.02;6.97;;;25.60;99.00;;;;;;5013602;28;20042;-63
2023/08/24 12:16:07;;;;;;;8.95;5.75;;;25.70;99.20;;;;;;5019271;28;20150;-67
2023/08/24 12:18:46;;;;;;;10.15;7.43;;;25.80;99.10;;;;;;5023393;28;20120;-59
2023/08/24 12:21:13;;;;;;;9.73;6.00;;;25.90;98.30;;;;;;5013333;28;20046;-57
2023/08/24 12:23:38;;;;;;;10.77;7.15;;;25.70;99.00;;;;;;5019241;28;20067;-65
2023/08/24 12:26:07;;;;;;;10.77;6.90;;;25.70;98.60;;;;;;5023384;28;20602;-52
2023/08/24 12:28:33;;;;;;;10.90;7.30;;;25.60;98.90;;;;;;5024567;28;20909;-66
2023/08/24 12:31:03;;;;;;;12.00;7.03;;;25.40;98.90;;;;;;5024209;28;20037;-62
2023/08/24 12:33:30;;;;;;;9.50;6.10;;;25.40;98.70;;;;;;5025035;28;20581;-66
2023/08/24 12:35:58;;;;;;;1292.65;907.40;;;25.40;98.50;;;;;;5022921;28;20042;-59
2023/08/24 12:38:25;;;;;;;1201.68;905.78;;;25.30;98.60;;;;;;5024267;28;20049;-66
2023/08/24 12:40:52;;;;;;;1221.18;999.90;;;25.10;98.60;;;;;;5024113;28;20085;-61